CXA8192 ZBTJ-ZSFZ
Flight info
| Callsign | CXA8192 |
|---|---|
| Flight time | 2h 8m |
| Altitude | 33100 |
| Route | ELKUR W40 YQG W142 DALIM A593 DPX A470 OF W95 SAPIN V143 EMRID A470 BZ |
| Aircraft | B38M/M-SDE1FGHILORVWXY/HB1 |
Departure
| Time | 2026-04-23 12:00 |
|---|---|
| Airport | Tianjin Binhai International Airport (ZBTJ) |
Arrival
| Time | 2026-04-23 14:09 |
|---|---|
| Airport | Fuzhou Changle International Airport (ZSFZ) |
| Time | Latitude | Longitude | Altitude | Speed | Heading |
|---|---|---|---|---|---|
| 2026-04-23 11:39 | 39.12688 | 117.35331 | 21 ft | 0 kts | 273° |
| 2026-04-23 11:50 | 39.12688 | 117.35354 | 24 ft | 4 kts | 273° |
| 2026-04-23 11:50 | 39.12687 | 117.35383 | 24 ft | 4 kts | 262° |
| 2026-04-23 11:50 | 39.12697 | 117.35406 | 26 ft | 4 kts | 201° |
| 2026-04-23 11:50 | 39.12723 | 117.35412 | 24 ft | 4 kts | 183° |
| 2026-04-23 11:51 | 39.12729 | 117.35412 | 24 ft | 1 kts | 183° |
| 2026-04-23 11:53 | 39.12727 | 117.35412 | 21 ft | 1 kts | 183° |
| 2026-04-23 11:54 | 39.12697 | 117.35410 | 21 ft | 8 kts | 183° |
| 2026-04-23 11:54 | 39.12610 | 117.35403 | 24 ft | 17 kts | 183° |
| 2026-04-23 11:54 | 39.12463 | 117.35391 | 21 ft | 25 kts | 184° |
| 2026-04-23 11:54 | 39.12304 | 117.35377 | 21 ft | 15 kts | 189° |
| 2026-04-23 11:55 | 39.12262 | 117.35302 | 25 ft | 14 kts | 251° |
| 2026-04-23 11:55 | 39.12215 | 117.35153 | 23 ft | 22 kts | 241° |
| 2026-04-23 11:55 | 39.12186 | 117.35043 | 22 ft | 12 kts | 289° |
| 2026-04-23 11:55 | 39.12264 | 117.34975 | 21 ft | 18 kts | 341° |
| 2026-04-23 11:56 | 39.12405 | 117.34893 | 22 ft | 27 kts | 334° |
| 2026-04-23 11:56 | 39.12557 | 117.34798 | 21 ft | 24 kts | 334° |
| 2026-04-23 11:56 | 39.12712 | 117.34702 | 21 ft | 26 kts | 335° |
| 2026-04-23 11:56 | 39.12876 | 117.34603 | 22 ft | 27 kts | 335° |
| 2026-04-23 11:57 | 39.13047 | 117.34500 | 21 ft | 28 kts | 335° |
| 2026-04-23 11:57 | 39.13223 | 117.34392 | 23 ft | 29 kts | 334° |
| 2026-04-23 11:57 | 39.13408 | 117.34277 | 25 ft | 30 kts | 334° |
| 2026-04-23 11:57 | 39.13599 | 117.34160 | 22 ft | 31 kts | 334° |
| 2026-04-23 11:58 | 39.13795 | 117.34040 | 22 ft | 32 kts | 334° |
| 2026-04-23 11:58 | 39.13990 | 117.33918 | 23 ft | 31 kts | 334° |
| 2026-04-23 11:58 | 39.14107 | 117.33826 | 24 ft | 11 kts | 292° |
| 2026-04-23 11:58 | 39.14088 | 117.33724 | 22 ft | 13 kts | 244° |
| 2026-04-23 11:59 | 39.14039 | 117.33626 | 22 ft | 10 kts | 203° |
| 2026-04-23 11:59 | 39.13982 | 117.33663 | 23 ft | 10 kts | 144° |
| 2026-04-23 11:59 | 39.13910 | 117.33712 | 25 ft | 14 kts | 154° |
| 2026-04-23 11:59 | 39.13801 | 117.33778 | 23 ft | 23 kts | 155° |
| 2026-04-23 12:00 | 39.13467 | 117.33982 | 21 ft | 94 kts | 154° |
| 2026-04-23 12:00 | 39.12650 | 117.34487 | 22 ft | 164 kts | 156° |
| 2026-04-23 12:00 | 39.11467 | 117.35168 | 286 ft | 206 kts | 156° |
| 2026-04-23 12:00 | 39.10090 | 117.35991 | 1047 ft | 217 kts | 161° |
| 2026-04-23 12:01 | 39.08733 | 117.36768 | 2069 ft | 220 kts | 160° |
| 2026-04-23 12:01 | 39.07298 | 117.37621 | 2807 ft | 229 kts | 160° |
| 2026-04-23 12:01 | 39.05867 | 117.38499 | 3656 ft | 234 kts | 159° |
| 2026-04-23 12:01 | 39.04369 | 117.39433 | 4350 ft | 246 kts | 158° |
| 2026-04-23 12:02 | 39.02810 | 117.40417 | 5101 ft | 254 kts | 158° |
| 2026-04-23 12:02 | 39.01210 | 117.41435 | 6037 ft | 257 kts | 158° |
| 2026-04-23 12:02 | 38.99591 | 117.42469 | 6906 ft | 263 kts | 157° |
| 2026-04-23 12:02 | 38.98077 | 117.43813 | 7790 ft | 270 kts | 133° |
| 2026-04-23 12:03 | 38.97152 | 117.45933 | 8561 ft | 279 kts | 105° |
| 2026-04-23 12:03 | 38.96848 | 117.48422 | 8764 ft | 287 kts | 99° |
| 2026-04-23 12:03 | 38.96082 | 117.50764 | 8795 ft | 288 kts | 133° |
| 2026-04-23 12:03 | 38.94481 | 117.52138 | 9283 ft | 280 kts | 168° |
| 2026-04-23 12:04 | 38.92569 | 117.52141 | 10041 ft | 278 kts | 201° |
| 2026-04-23 12:04 | 38.90954 | 117.50823 | 10656 ft | 282 kts | 232° |
| 2026-04-23 12:04 | 38.90008 | 117.48573 | 11070 ft | 296 kts | 255° |
| 2026-04-23 12:04 | 38.89476 | 117.45932 | 11445 ft | 315 kts | 261° |
| 2026-04-23 12:05 | 38.89462 | 117.43065 | 11788 ft | 331 kts | 285° |
| 2026-04-23 12:05 | 38.90407 | 117.40355 | 12415 ft | 338 kts | 297° |
| 2026-04-23 12:05 | 38.91372 | 117.37569 | 13066 ft | 344 kts | 285° |
| 2026-04-23 12:05 | 38.91595 | 117.34508 | 13841 ft | 349 kts | 265° |
| 2026-04-23 12:06 | 38.90961 | 117.31476 | 14470 ft | 357 kts | 246° |
| 2026-04-23 12:06 | 38.89839 | 117.28661 | 15088 ft | 362 kts | 244° |
| 2026-04-23 12:06 | 38.87494 | 117.22855 | 16338 ft | 370 kts | 244° |
| 2026-04-23 12:07 | 38.86294 | 117.19913 | 16938 ft | 375 kts | 244° |
| 2026-04-23 12:07 | 38.85074 | 117.16936 | 17540 ft | 379 kts | 244° |
| 2026-04-23 12:07 | 38.83840 | 117.13929 | 18136 ft | 383 kts | 244° |
| 2026-04-23 12:07 | 38.82592 | 117.10892 | 18646 ft | 387 kts | 244° |
| 2026-04-23 12:08 | 38.81334 | 117.07831 | 19168 ft | 390 kts | 244° |
| 2026-04-23 12:08 | 38.80079 | 117.04783 | 19674 ft | 393 kts | 244° |
| 2026-04-23 12:08 | 38.78798 | 117.01673 | 20173 ft | 397 kts | 244° |
| 2026-04-23 12:08 | 38.77503 | 116.98534 | 20671 ft | 400 kts | 244° |
| 2026-04-23 12:09 | 38.76197 | 116.95369 | 21160 ft | 403 kts | 244° |
| 2026-04-23 12:09 | 38.74869 | 116.92193 | 21654 ft | 407 kts | 243° |
| 2026-04-23 12:09 | 38.73516 | 116.88999 | 22116 ft | 410 kts | 243° |
| 2026-04-23 12:09 | 38.72150 | 116.85770 | 22569 ft | 414 kts | 243° |
| 2026-04-23 12:10 | 38.70776 | 116.82521 | 23092 ft | 416 kts | 243° |
| 2026-04-23 12:10 | 38.69391 | 116.79252 | 23533 ft | 420 kts | 243° |
| 2026-04-23 12:10 | 38.68013 | 116.76001 | 23912 ft | 422 kts | 243° |
| 2026-04-23 12:10 | 38.66599 | 116.72695 | 24298 ft | 425 kts | 240° |
| 2026-04-23 12:11 | 38.64766 | 116.69711 | 24670 ft | 430 kts | 224° |
| 2026-04-23 12:11 | 38.62315 | 116.67502 | 25037 ft | 435 kts | 207° |
| 2026-04-23 12:11 | 38.59451 | 116.66250 | 25378 ft | 438 kts | 190° |
| 2026-04-23 12:11 | 38.56415 | 116.65746 | 25721 ft | 442 kts | 186° |
| 2026-04-23 12:12 | 38.53351 | 116.65331 | 26060 ft | 444 kts | 186° |
| 2026-04-23 12:12 | 38.50266 | 116.64942 | 26432 ft | 447 kts | 185° |
| 2026-04-23 12:12 | 38.47163 | 116.64572 | 26786 ft | 449 kts | 185° |
| 2026-04-23 12:12 | 38.44082 | 116.64215 | 27130 ft | 451 kts | 185° |
| 2026-04-23 12:13 | 38.40946 | 116.63854 | 27470 ft | 454 kts | 185° |
| 2026-04-23 12:13 | 38.37788 | 116.63492 | 27802 ft | 456 kts | 185° |
| 2026-04-23 12:13 | 38.34623 | 116.63130 | 28153 ft | 458 kts | 185° |
| 2026-04-23 12:13 | 38.31432 | 116.62773 | 28476 ft | 461 kts | 183° |
| 2026-04-23 12:14 | 38.28246 | 116.63022 | 28788 ft | 460 kts | 166° |
| 2026-04-23 12:14 | 38.25149 | 116.64077 | 29096 ft | 462 kts | 163° |
| 2026-04-23 12:14 | 38.22040 | 116.65176 | 29366 ft | 465 kts | 163° |
| 2026-04-23 12:14 | 38.18924 | 116.66305 | 29702 ft | 467 kts | 162° |
| 2026-04-23 12:15 | 38.15799 | 116.67455 | 30014 ft | 469 kts | 162° |
| 2026-04-23 12:15 | 38.12705 | 116.68600 | 30285 ft | 470 kts | 162° |
| 2026-04-23 12:15 | 38.09570 | 116.69792 | 30528 ft | 472 kts | 162° |
| 2026-04-23 12:15 | 38.06418 | 116.70997 | 30787 ft | 474 kts | 162° |
| 2026-04-23 12:16 | 38.03255 | 116.72203 | 31040 ft | 475 kts | 162° |
| 2026-04-23 12:16 | 38.00083 | 116.73410 | 31320 ft | 476 kts | 162° |
| 2026-04-23 12:16 | 37.96907 | 116.74618 | 31672 ft | 475 kts | 162° |
| 2026-04-23 12:16 | 37.93746 | 116.75820 | 32020 ft | 475 kts | 163° |
| 2026-04-23 12:17 | 37.90584 | 116.77020 | 32368 ft | 474 kts | 163° |
| 2026-04-23 12:17 | 37.87425 | 116.78218 | 32709 ft | 473 kts | 163° |
| 2026-04-23 12:17 | 37.84317 | 116.79396 | 33013 ft | 473 kts | 163° |
| 2026-04-23 12:17 | 37.81156 | 116.80593 | 33064 ft | 473 kts | 163° |
| 2026-04-23 12:18 | 37.74871 | 116.82970 | 33047 ft | 471 kts | 163° |
| 2026-04-23 12:18 | 37.68589 | 116.85342 | 33044 ft | 472 kts | 163° |
| 2026-04-23 12:19 | 37.62297 | 116.87711 | 33053 ft | 472 kts | 164° |
| 2026-04-23 12:19 | 37.56045 | 116.90064 | 33056 ft | 472 kts | 164° |
| 2026-04-23 12:20 | 37.49746 | 116.92429 | 33055 ft | 472 kts | 164° |
| 2026-04-23 12:20 | 37.43441 | 116.94792 | 33053 ft | 473 kts | 165° |
| 2026-04-23 12:21 | 37.37135 | 116.97152 | 33059 ft | 473 kts | 165° |
| 2026-04-23 12:21 | 37.30868 | 116.99494 | 33067 ft | 473 kts | 164° |
| 2026-04-23 12:22 | 37.24673 | 117.02280 | 33069 ft | 474 kts | 161° |
| 2026-04-23 12:22 | 37.18497 | 117.05166 | 33072 ft | 474 kts | 161° |
| 2026-04-23 12:23 | 37.13366 | 117.07571 | 33072 ft | 473 kts | 161° |
| 2026-04-23 12:23 | 37.06262 | 117.10887 | 33071 ft | 473 kts | 161° |
| 2026-04-23 12:24 | 37.00131 | 117.13743 | 33079 ft | 473 kts | 161° |
| 2026-04-23 12:24 | 36.93963 | 117.16611 | 33082 ft | 473 kts | 161° |
| 2026-04-23 12:25 | 36.87782 | 117.19481 | 33083 ft | 474 kts | 161° |
| 2026-04-23 12:25 | 36.81462 | 117.21468 | 33083 ft | 465 kts | 182° |
| 2026-04-23 12:26 | 36.75005 | 117.21507 | 33076 ft | 467 kts | 183° |
| 2026-04-23 12:26 | 36.68505 | 117.21493 | 33096 ft | 467 kts | 184° |
| 2026-04-23 12:27 | 36.63116 | 117.21457 | 33104 ft | 467 kts | 184° |
| 2026-04-23 12:27 | 36.56619 | 117.21411 | 33108 ft | 467 kts | 184° |
| 2026-04-23 12:28 | 36.50133 | 117.21365 | 33108 ft | 466 kts | 184° |
| 2026-04-23 12:28 | 36.43649 | 117.21324 | 33115 ft | 466 kts | 182° |
| 2026-04-23 12:29 | 36.39407 | 117.22259 | 33122 ft | 472 kts | 165° |
| 2026-04-23 12:29 | 36.37332 | 117.23043 | 33111 ft | 474 kts | 167° |
| 2026-04-23 12:29 | 36.30981 | 117.25335 | 33117 ft | 474 kts | 167° |
| 2026-04-23 12:30 | 36.24662 | 117.27674 | 33119 ft | 474 kts | 167° |
| 2026-04-23 12:30 | 36.18351 | 117.30015 | 33119 ft | 474 kts | 167° |
| 2026-04-23 12:31 | 36.12078 | 117.32337 | 33119 ft | 473 kts | 167° |
| 2026-04-23 12:31 | 36.05767 | 117.34669 | 33102 ft | 473 kts | 167° |
| 2026-04-23 12:32 | 35.99471 | 117.37005 | 33114 ft | 472 kts | 167° |
| 2026-04-23 12:32 | 35.93188 | 117.39364 | 33126 ft | 472 kts | 167° |
| 2026-04-23 12:33 | 35.86941 | 117.41701 | 33133 ft | 472 kts | 167° |
| 2026-04-23 12:33 | 35.80649 | 117.44051 | 33121 ft | 472 kts | 167° |
| 2026-04-23 12:34 | 35.74366 | 117.46393 | 33130 ft | 472 kts | 167° |
| 2026-04-23 12:34 | 35.68083 | 117.48731 | 33138 ft | 472 kts | 168° |
| 2026-04-23 12:35 | 35.61811 | 117.51063 | 33135 ft | 471 kts | 168° |
| 2026-04-23 12:35 | 35.55580 | 117.53375 | 33136 ft | 471 kts | 168° |
| 2026-04-23 12:36 | 35.49319 | 117.55693 | 33142 ft | 471 kts | 168° |
| 2026-04-23 12:36 | 35.43040 | 117.58016 | 33139 ft | 471 kts | 168° |
| 2026-04-23 12:37 | 35.36768 | 117.60331 | 33140 ft | 471 kts | 168° |
| 2026-04-23 12:37 | 35.30539 | 117.62627 | 33131 ft | 470 kts | 168° |
| 2026-04-23 12:38 | 35.24290 | 117.64927 | 33145 ft | 469 kts | 168° |
| 2026-04-23 12:38 | 35.18038 | 117.67223 | 33149 ft | 469 kts | 168° |
| 2026-04-23 12:39 | 35.11785 | 117.69518 | 33147 ft | 469 kts | 168° |
| 2026-04-23 12:39 | 35.05576 | 117.71794 | 33141 ft | 468 kts | 168° |
| 2026-04-23 12:40 | 34.99343 | 117.74078 | 33145 ft | 468 kts | 168° |
| 2026-04-23 12:40 | 34.93113 | 117.76357 | 33148 ft | 468 kts | 168° |
| 2026-04-23 12:41 | 34.86880 | 117.78634 | 33154 ft | 467 kts | 168° |
| 2026-04-23 12:41 | 34.80693 | 117.80880 | 33130 ft | 466 kts | 169° |
| 2026-04-23 12:42 | 34.74482 | 117.83119 | 33149 ft | 466 kts | 169° |
| 2026-04-23 12:42 | 34.68265 | 117.85358 | 33150 ft | 466 kts | 169° |
| 2026-04-23 12:43 | 34.62055 | 117.87591 | 33150 ft | 466 kts | 169° |
| 2026-04-23 12:43 | 34.55881 | 117.89807 | 33140 ft | 465 kts | 169° |
| 2026-04-23 12:44 | 34.49681 | 117.92030 | 33152 ft | 465 kts | 169° |
| 2026-04-23 12:44 | 34.43484 | 117.94248 | 33154 ft | 465 kts | 169° |
| 2026-04-23 12:45 | 34.37287 | 117.96462 | 33153 ft | 464 kts | 169° |
| 2026-04-23 12:45 | 34.31125 | 117.98661 | 33135 ft | 464 kts | 170° |
| 2026-04-23 12:46 | 34.24950 | 118.00898 | 33152 ft | 463 kts | 169° |
| 2026-04-23 12:46 | 34.18779 | 118.03145 | 33159 ft | 463 kts | 169° |
| 2026-04-23 12:47 | 34.12608 | 118.05386 | 33159 ft | 463 kts | 169° |
| 2026-04-23 12:47 | 34.06437 | 118.07622 | 33122 ft | 462 kts | 171° |
| 2026-04-23 12:48 | 34.00357 | 118.09830 | 33150 ft | 459 kts | 171° |
| 2026-04-23 12:48 | 33.94245 | 118.12057 | 33166 ft | 459 kts | 171° |
| 2026-04-23 12:49 | 33.88137 | 118.14278 | 33155 ft | 459 kts | 171° |
| 2026-04-23 12:49 | 33.82020 | 118.16499 | 33126 ft | 459 kts | 171° |
| 2026-04-23 12:50 | 33.75912 | 118.18727 | 33151 ft | 459 kts | 171° |
| 2026-04-23 12:50 | 33.69845 | 118.20936 | 33151 ft | 459 kts | 171° |
| 2026-04-23 12:51 | 33.63739 | 118.23155 | 33154 ft | 459 kts | 171° |
| 2026-04-23 12:51 | 33.57632 | 118.25372 | 33155 ft | 459 kts | 171° |
| 2026-04-23 12:52 | 33.51522 | 118.27586 | 33150 ft | 458 kts | 172° |
| 2026-04-23 12:52 | 33.45459 | 118.29780 | 33153 ft | 458 kts | 172° |
| 2026-04-23 12:53 | 33.39357 | 118.31986 | 33153 ft | 458 kts | 172° |
| 2026-04-23 12:53 | 33.33255 | 118.34188 | 33152 ft | 458 kts | 172° |
| 2026-04-23 12:54 | 33.27153 | 118.36386 | 33134 ft | 457 kts | 172° |
| 2026-04-23 12:54 | 33.21064 | 118.38579 | 33156 ft | 456 kts | 172° |
| 2026-04-23 12:55 | 33.15042 | 118.40750 | 33150 ft | 455 kts | 172° |
| 2026-04-23 12:55 | 33.08981 | 118.42931 | 33147 ft | 455 kts | 172° |
| 2026-04-23 12:56 | 33.02925 | 118.45107 | 33148 ft | 455 kts | 172° |
| 2026-04-23 12:56 | 32.96866 | 118.47281 | 33148 ft | 455 kts | 172° |
| 2026-04-23 12:57 | 32.90807 | 118.49452 | 33143 ft | 455 kts | 172° |
| 2026-04-23 12:57 | 32.84782 | 118.51608 | 33148 ft | 455 kts | 172° |
| 2026-04-23 12:58 | 32.78720 | 118.53774 | 33111 ft | 455 kts | 173° |
| 2026-04-23 12:58 | 32.72668 | 118.55933 | 33140 ft | 454 kts | 173° |
| 2026-04-23 12:59 | 32.66620 | 118.58063 | 33148 ft | 452 kts | 174° |
| 2026-04-23 12:59 | 32.60607 | 118.60101 | 33143 ft | 453 kts | 174° |
| 2026-04-23 13:00 | 32.54553 | 118.62161 | 33148 ft | 453 kts | 174° |
| 2026-04-23 13:00 | 32.48498 | 118.64221 | 33143 ft | 452 kts | 174° |
| 2026-04-23 13:01 | 32.42446 | 118.66277 | 33143 ft | 452 kts | 174° |
| 2026-04-23 13:01 | 32.36456 | 118.68308 | 33140 ft | 451 kts | 174° |
| 2026-04-23 13:02 | 32.30405 | 118.70358 | 33140 ft | 451 kts | 174° |
| 2026-04-23 13:02 | 32.24383 | 118.72379 | 33123 ft | 451 kts | 175° |
| 2026-04-23 13:03 | 32.18319 | 118.74412 | 33135 ft | 452 kts | 175° |
| 2026-04-23 13:03 | 32.12265 | 118.76439 | 33135 ft | 452 kts | 175° |
| 2026-04-23 13:04 | 32.06257 | 118.78448 | 33137 ft | 452 kts | 175° |
| 2026-04-23 13:04 | 32.00205 | 118.80468 | 33096 ft | 452 kts | 175° |
| 2026-04-23 13:05 | 31.94139 | 118.82412 | 33153 ft | 452 kts | 176° |
| 2026-04-23 13:05 | 31.88076 | 118.84357 | 33145 ft | 452 kts | 176° |
| 2026-04-23 13:06 | 31.79032 | 118.87416 | 33145 ft | 453 kts | 175° |
| 2026-04-23 13:06 | 31.76048 | 118.88782 | 33114 ft | 472 kts | 160° |
| 2026-04-23 13:07 | 31.73358 | 118.91140 | 33116 ft | 492 kts | 147° |
| 2026-04-23 13:07 | 31.68245 | 118.96557 | 33125 ft | 492 kts | 152° |
| 2026-04-23 13:08 | 31.62763 | 119.01181 | 33146 ft | 488 kts | 154° |
| 2026-04-23 13:08 | 31.57309 | 119.05774 | 33130 ft | 474 kts | 163° |
| 2026-04-23 13:08 | 31.54329 | 119.07119 | 33144 ft | 450 kts | 176° |
| 2026-04-23 13:09 | 31.51303 | 119.08095 | 33127 ft | 452 kts | 176° |
| 2026-04-23 13:09 | 31.45230 | 119.09977 | 33140 ft | 451 kts | 177° |
| 2026-04-23 13:10 | 31.39161 | 119.11778 | 33141 ft | 450 kts | 178° |
| 2026-04-23 13:10 | 31.33136 | 119.13548 | 33135 ft | 449 kts | 178° |
| 2026-04-23 13:11 | 31.27074 | 119.15325 | 33139 ft | 449 kts | 178° |
| 2026-04-23 13:11 | 31.21017 | 119.17099 | 33139 ft | 449 kts | 178° |
| 2026-04-23 13:12 | 31.14957 | 119.18871 | 33128 ft | 448 kts | 179° |
| 2026-04-23 13:12 | 31.08957 | 119.20623 | 33138 ft | 448 kts | 179° |
| 2026-04-23 13:13 | 31.02918 | 119.22384 | 33140 ft | 447 kts | 179° |
| 2026-04-23 13:13 | 30.96873 | 119.24145 | 33146 ft | 447 kts | 179° |
| 2026-04-23 13:14 | 30.90846 | 119.25896 | 33086 ft | 447 kts | 180° |
| 2026-04-23 13:14 | 30.84793 | 119.27660 | 33134 ft | 447 kts | 180° |
| 2026-04-23 13:15 | 30.78809 | 119.29392 | 33158 ft | 446 kts | 180° |
| 2026-04-23 13:15 | 30.72783 | 119.31140 | 33138 ft | 446 kts | 180° |
| 2026-04-23 13:16 | 30.66759 | 119.32885 | 33146 ft | 446 kts | 180° |
| 2026-04-23 13:16 | 30.60729 | 119.34627 | 33154 ft | 447 kts | 180° |
| 2026-04-23 13:17 | 30.54735 | 119.36356 | 33131 ft | 446 kts | 180° |
| 2026-04-23 13:17 | 30.48711 | 119.38094 | 33129 ft | 446 kts | 180° |
| 2026-04-23 13:18 | 30.42683 | 119.39830 | 33160 ft | 447 kts | 180° |
| 2026-04-23 13:18 | 30.36660 | 119.41559 | 33127 ft | 445 kts | 180° |
| 2026-04-23 13:19 | 30.30667 | 119.43286 | 33192 ft | 449 kts | 180° |
| 2026-04-23 13:19 | 30.24640 | 119.45009 | 33130 ft | 445 kts | 180° |
| 2026-04-23 13:20 | 30.18607 | 119.46739 | 33140 ft | 446 kts | 180° |
| 2026-04-23 13:20 | 30.12581 | 119.48464 | 33102 ft | 447 kts | 181° |
| 2026-04-23 13:21 | 30.06572 | 119.50178 | 33147 ft | 449 kts | 181° |
| 2026-04-23 13:21 | 30.00516 | 119.51907 | 33119 ft | 447 kts | 181° |
| 2026-04-23 13:22 | 29.94488 | 119.53623 | 33163 ft | 446 kts | 181° |
| 2026-04-23 13:22 | 29.88435 | 119.55349 | 33131 ft | 448 kts | 181° |
| 2026-04-23 13:23 | 29.82380 | 119.57072 | 33120 ft | 448 kts | 181° |
| 2026-04-23 13:23 | 29.76365 | 119.58779 | 33150 ft | 448 kts | 181° |
| 2026-04-23 13:24 | 29.70322 | 119.60493 | 33155 ft | 447 kts | 181° |
| 2026-04-23 13:24 | 29.64273 | 119.62211 | 33097 ft | 447 kts | 181° |
| 2026-04-23 13:25 | 29.58241 | 119.63916 | 33114 ft | 447 kts | 180° |
| 2026-04-23 13:25 | 29.52234 | 119.65049 | 33152 ft | 430 kts | 189° |
| 2026-04-23 13:25 | 29.49300 | 119.65292 | 33149 ft | 419 kts | 196° |
| 2026-04-23 13:26 | 29.46504 | 119.64862 | 33129 ft | 398 kts | 205° |
| 2026-04-23 13:26 | 29.40998 | 119.63755 | 33130 ft | 422 kts | 193° |
| 2026-04-23 13:27 | 29.35178 | 119.63638 | 33115 ft | 416 kts | 197° |
| 2026-04-23 13:27 | 29.29425 | 119.63299 | 33117 ft | 419 kts | 197° |
| 2026-04-23 13:28 | 29.23604 | 119.62946 | 33145 ft | 419 kts | 197° |
| 2026-04-23 13:28 | 29.17775 | 119.62590 | 33157 ft | 419 kts | 197° |
| 2026-04-23 13:29 | 29.11958 | 119.62235 | 33114 ft | 418 kts | 197° |
| 2026-04-23 13:29 | 29.06184 | 119.61878 | 33108 ft | 419 kts | 197° |
| 2026-04-23 13:30 | 29.00344 | 119.61514 | 33128 ft | 420 kts | 197° |
| 2026-04-23 13:30 | 28.94496 | 119.61151 | 33138 ft | 421 kts | 197° |
| 2026-04-23 13:31 | 28.88654 | 119.60789 | 33122 ft | 421 kts | 197° |
| 2026-04-23 13:31 | 28.82802 | 119.60424 | 33084 ft | 421 kts | 197° |
| 2026-04-23 13:32 | 28.76987 | 119.60063 | 33134 ft | 423 kts | 197° |
| 2026-04-23 13:32 | 28.71121 | 119.59701 | 33126 ft | 422 kts | 197° |
| 2026-04-23 13:33 | 28.65266 | 119.59339 | 33128 ft | 421 kts | 197° |
| 2026-04-23 13:33 | 28.59411 | 119.58977 | 33159 ft | 422 kts | 197° |
| 2026-04-23 13:34 | 28.53568 | 119.58619 | 33106 ft | 422 kts | 196° |
| 2026-04-23 13:34 | 28.47710 | 119.58256 | 33111 ft | 422 kts | 196° |
| 2026-04-23 13:35 | 28.41830 | 119.57926 | 33104 ft | 424 kts | 196° |
| 2026-04-23 13:35 | 28.35962 | 119.57600 | 33113 ft | 422 kts | 196° |
| 2026-04-23 13:36 | 28.30098 | 119.57273 | 33052 ft | 426 kts | 195° |
| 2026-04-23 13:36 | 28.24172 | 119.56944 | 33127 ft | 428 kts | 195° |
| 2026-04-23 13:37 | 28.18237 | 119.56615 | 33122 ft | 425 kts | 195° |
| 2026-04-23 13:37 | 28.12319 | 119.56286 | 33130 ft | 426 kts | 195° |
| 2026-04-23 13:38 | 28.06383 | 119.56211 | 33081 ft | 430 kts | 193° |
| 2026-04-23 13:38 | 28.00404 | 119.56182 | 33097 ft | 428 kts | 193° |
| 2026-04-23 13:39 | 27.94434 | 119.56138 | 33128 ft | 430 kts | 193° |
| 2026-04-23 13:39 | 27.88434 | 119.56098 | 33088 ft | 430 kts | 193° |
| 2026-04-23 13:40 | 27.82432 | 119.56052 | 33094 ft | 431 kts | 193° |
| 2026-04-23 13:40 | 27.76479 | 119.56009 | 33073 ft | 430 kts | 193° |
| 2026-04-23 13:41 | 27.70491 | 119.55965 | 33075 ft | 431 kts | 193° |
| 2026-04-23 13:41 | 27.64513 | 119.55922 | 33124 ft | 431 kts | 193° |
| 2026-04-23 13:42 | 27.58526 | 119.55879 | 33132 ft | 430 kts | 193° |
| 2026-04-23 13:42 | 27.52569 | 119.55835 | 33070 ft | 431 kts | 192° |
| 2026-04-23 13:43 | 27.46573 | 119.55793 | 32707 ft | 431 kts | 192° |
| 2026-04-23 13:43 | 27.43571 | 119.55772 | 32128 ft | 431 kts | 192° |
| 2026-04-23 13:43 | 27.40562 | 119.55750 | 31534 ft | 435 kts | 192° |
| 2026-04-23 13:43 | 27.37533 | 119.55732 | 30983 ft | 435 kts | 192° |
| 2026-04-23 13:44 | 27.34504 | 119.55708 | 30434 ft | 437 kts | 192° |
| 2026-04-23 13:44 | 27.31455 | 119.55686 | 29894 ft | 439 kts | 191° |
| 2026-04-23 13:44 | 27.28392 | 119.55664 | 29212 ft | 441 kts | 191° |
| 2026-04-23 13:44 | 27.25352 | 119.55642 | 28594 ft | 443 kts | 190° |
| 2026-04-23 13:45 | 27.22272 | 119.55625 | 27991 ft | 443 kts | 190° |
| 2026-04-23 13:45 | 27.19179 | 119.55601 | 27424 ft | 445 kts | 190° |
| 2026-04-23 13:45 | 27.16077 | 119.55577 | 26816 ft | 447 kts | 190° |
| 2026-04-23 13:45 | 27.12957 | 119.55553 | 26221 ft | 450 kts | 189° |
| 2026-04-23 13:46 | 27.09826 | 119.55531 | 25664 ft | 451 kts | 189° |
| 2026-04-23 13:46 | 27.06689 | 119.55509 | 25103 ft | 450 kts | 189° |
| 2026-04-23 13:46 | 27.03568 | 119.55487 | 24543 ft | 447 kts | 189° |
| 2026-04-23 13:46 | 27.00460 | 119.55466 | 24047 ft | 445 kts | 188° |
| 2026-04-23 13:47 | 26.97424 | 119.55442 | 23461 ft | 441 kts | 188° |
| 2026-04-23 13:47 | 26.94361 | 119.55421 | 22877 ft | 438 kts | 188° |
| 2026-04-23 13:47 | 26.91327 | 119.55399 | 22242 ft | 435 kts | 188° |
| 2026-04-23 13:47 | 26.88307 | 119.55377 | 21601 ft | 432 kts | 188° |
| 2026-04-23 13:48 | 26.85317 | 119.55355 | 21028 ft | 429 kts | 188° |
| 2026-04-23 13:48 | 26.82353 | 119.55336 | 20443 ft | 423 kts | 188° |
| 2026-04-23 13:48 | 26.79431 | 119.55315 | 19880 ft | 417 kts | 188° |
| 2026-04-23 13:48 | 26.76540 | 119.55295 | 19313 ft | 413 kts | 188° |
| 2026-04-23 13:49 | 26.73680 | 119.55274 | 18754 ft | 410 kts | 188° |
| 2026-04-23 13:49 | 26.70876 | 119.55254 | 18204 ft | 407 kts | 187° |
| 2026-04-23 13:49 | 26.68055 | 119.55234 | 17566 ft | 404 kts | 187° |
| 2026-04-23 13:49 | 26.65255 | 119.55214 | 16940 ft | 401 kts | 187° |
| 2026-04-23 13:50 | 26.62471 | 119.55195 | 16326 ft | 398 kts | 187° |
| 2026-04-23 13:50 | 26.59751 | 119.55178 | 15753 ft | 383 kts | 187° |
| 2026-04-23 13:50 | 26.57133 | 119.55159 | 15173 ft | 370 kts | 187° |
| 2026-04-23 13:50 | 26.54602 | 119.55141 | 14594 ft | 358 kts | 187° |
| 2026-04-23 13:51 | 26.52145 | 119.55123 | 14081 ft | 348 kts | 187° |
| 2026-04-23 13:51 | 26.49750 | 119.55106 | 13456 ft | 340 kts | 187° |
| 2026-04-23 13:51 | 26.47439 | 119.55089 | 12813 ft | 334 kts | 187° |
| 2026-04-23 13:51 | 26.45144 | 119.55073 | 12194 ft | 327 kts | 187° |
| 2026-04-23 13:52 | 26.42899 | 119.55057 | 11936 ft | 321 kts | 187° |
| 2026-04-23 13:52 | 26.40658 | 119.55106 | 11821 ft | 326 kts | 178° |
| 2026-04-23 13:52 | 26.38475 | 119.55910 | 11787 ft | 340 kts | 156° |
| 2026-04-23 13:52 | 26.36622 | 119.57621 | 11789 ft | 354 kts | 136° |
| 2026-04-23 13:53 | 26.35023 | 119.59732 | 11782 ft | 356 kts | 136° |
| 2026-04-23 13:53 | 26.33405 | 119.61825 | 11584 ft | 356 kts | 137° |
| 2026-04-23 13:53 | 26.31786 | 119.63904 | 11262 ft | 354 kts | 137° |
| 2026-04-23 13:53 | 26.30200 | 119.65940 | 10942 ft | 351 kts | 136° |
| 2026-04-23 13:54 | 26.28605 | 119.67989 | 10636 ft | 348 kts | 137° |
| 2026-04-23 13:54 | 26.27019 | 119.70023 | 10315 ft | 346 kts | 137° |
| 2026-04-23 13:54 | 26.25295 | 119.71824 | 9980 ft | 333 kts | 155° |
| 2026-04-23 13:54 | 26.23199 | 119.72675 | 9648 ft | 315 kts | 179° |
| 2026-04-23 13:55 | 26.21078 | 119.72505 | 9331 ft | 301 kts | 200° |
| 2026-04-23 13:55 | 26.19152 | 119.71642 | 9016 ft | 299 kts | 208° |
| 2026-04-23 13:55 | 26.17246 | 119.70662 | 8707 ft | 302 kts | 208° |
| 2026-04-23 13:55 | 26.15377 | 119.69661 | 8346 ft | 302 kts | 209° |
| 2026-04-23 13:56 | 26.13512 | 119.68641 | 7927 ft | 296 kts | 209° |
| 2026-04-23 13:56 | 26.11684 | 119.67627 | 7604 ft | 288 kts | 209° |
| 2026-04-23 13:56 | 26.09934 | 119.66650 | 7452 ft | 274 kts | 209° |
| 2026-04-23 13:56 | 26.08290 | 119.65726 | 7407 ft | 257 kts | 210° |
| 2026-04-23 13:57 | 26.06738 | 119.64852 | 7361 ft | 246 kts | 210° |
| 2026-04-23 13:57 | 26.05208 | 119.63990 | 7175 ft | 247 kts | 210° |
| 2026-04-23 13:57 | 26.03677 | 119.63126 | 6911 ft | 247 kts | 210° |
| 2026-04-23 13:57 | 26.02142 | 119.62260 | 6642 ft | 247 kts | 209° |
| 2026-04-23 13:58 | 26.00627 | 119.61406 | 6393 ft | 247 kts | 209° |
| 2026-04-23 13:58 | 25.99095 | 119.60541 | 6110 ft | 247 kts | 210° |
| 2026-04-23 13:58 | 25.97573 | 119.59683 | 5918 ft | 243 kts | 210° |
| 2026-04-23 13:58 | 25.96063 | 119.58832 | 5903 ft | 244 kts | 208° |
| 2026-04-23 13:59 | 25.94536 | 119.57970 | 5886 ft | 247 kts | 208° |
| 2026-04-23 13:59 | 25.93004 | 119.57106 | 5899 ft | 248 kts | 208° |
| 2026-04-23 13:59 | 25.91459 | 119.56231 | 5900 ft | 251 kts | 207° |
| 2026-04-23 13:59 | 25.89904 | 119.55362 | 5914 ft | 250 kts | 207° |
| 2026-04-23 14:00 | 25.88879 | 119.54786 | 5879 ft | 249 kts | 207° |
| 2026-04-23 14:00 | 25.86824 | 119.53632 | 5897 ft | 240 kts | 209° |
| 2026-04-23 14:00 | 25.85371 | 119.52830 | 5911 ft | 227 kts | 209° |
| 2026-04-23 14:00 | 25.84019 | 119.52088 | 5893 ft | 215 kts | 209° |
| 2026-04-23 14:01 | 25.82673 | 119.51323 | 5885 ft | 220 kts | 209° |
| 2026-04-23 14:01 | 25.81295 | 119.50542 | 5913 ft | 220 kts | 209° |
| 2026-04-23 14:01 | 25.79936 | 119.49774 | 5727 ft | 221 kts | 210° |
| 2026-04-23 14:01 | 25.78551 | 119.48999 | 5438 ft | 225 kts | 209° |
| 2026-04-23 14:02 | 25.77064 | 119.48429 | 5141 ft | 232 kts | 186° |
| 2026-04-23 14:02 | 25.75466 | 119.48655 | 4940 ft | 229 kts | 166° |
| 2026-04-23 14:02 | 25.74213 | 119.49629 | 4827 ft | 222 kts | 120° |
| 2026-04-23 14:02 | 25.73917 | 119.51249 | 4552 ft | 214 kts | 94° |
| 2026-04-23 14:03 | 25.73315 | 119.52755 | 4077 ft | 214 kts | 121° |
| 2026-04-23 14:03 | 25.72875 | 119.54206 | 3773 ft | 200 kts | 86° |
| 2026-04-23 14:03 | 25.73446 | 119.55547 | 3189 ft | 195 kts | 37° |
| 2026-04-23 14:03 | 25.74605 | 119.56147 | 3103 ft | 171 kts | 21° |
| 2026-04-23 14:04 | 25.75663 | 119.56642 | 2954 ft | 164 kts | 29° |
| 2026-04-23 14:04 | 25.76635 | 119.57169 | 3161 ft | 161 kts | 22° |
| 2026-04-23 14:04 | 25.77683 | 119.57586 | 3057 ft | 158 kts | 20° |
| 2026-04-23 14:04 | 25.78699 | 119.58038 | 2789 ft | 146 kts | 26° |
| 2026-04-23 14:05 | 25.79619 | 119.58516 | 2779 ft | 147 kts | 27° |
| 2026-04-23 14:05 | 25.80504 | 119.59004 | 2559 ft | 142 kts | 27° |
| 2026-04-23 14:05 | 25.81396 | 119.59446 | 2349 ft | 138 kts | 34° |
| 2026-04-23 14:05 | 25.82228 | 119.60026 | 1886 ft | 153 kts | 28° |
| 2026-04-23 14:06 | 25.83230 | 119.60560 | 1402 ft | 146 kts | 29° |
| 2026-04-23 14:06 | 25.84043 | 119.61010 | 1599 ft | 134 kts | 30° |
| 2026-04-23 14:06 | 25.84980 | 119.61545 | 648 ft | 162 kts | 28° |
| 2026-04-23 14:06 | 25.85911 | 119.62066 | 603 ft | 143 kts | 27° |
| 2026-04-23 14:07 | 25.86806 | 119.62568 | 376 ft | 144 kts | 27° |
| 2026-04-23 14:07 | 25.88563 | 119.63577 | 409 ft | 144 kts | 27° |
| 2026-04-23 14:07 | 25.89456 | 119.64064 | 457 ft | 142 kts | 28° |
| 2026-04-23 14:08 | 25.90319 | 119.64575 | 329 ft | 140 kts | 27° |
| 2026-04-23 14:08 | 25.91205 | 119.65067 | 236 ft | 146 kts | 27° |
| 2026-04-23 14:08 | 25.92111 | 119.65573 | 64 ft | 145 kts | 28° |
| 2026-04-23 14:08 | 25.92912 | 119.66024 | 27 ft | 95 kts | 28° |
| 2026-04-23 14:09 | 25.93212 | 119.66191 | 29 ft | 52 kts | 26° |
| 2026-04-23 14:09 | 25.93438 | 119.66321 | 29 ft | 23 kts | 27° |
| 2026-04-23 14:09 | 25.93570 | 119.66422 | 26 ft | 24 kts | 46° |
| 2026-04-23 14:09 | 25.93668 | 119.66564 | 28 ft | 12 kts | 57° |
| 2026-04-23 14:10 | 25.93695 | 119.66618 | 26 ft | 1 kts | 97° |
| 2026-04-23 14:10 | 25.93692 | 119.66623 | 26 ft | 2 kts | 120° |
| 2026-04-23 14:10 | 25.93674 | 119.66658 | 26 ft | 8 kts | 120° |
| 2026-04-23 14:10 | 25.93643 | 119.66719 | 27 ft | 10 kts | 116° |
| 2026-04-23 14:11 | 25.93607 | 119.66796 | 27 ft | 11 kts | 123° |
| 2026-04-23 14:11 | 25.93542 | 119.66812 | 27 ft | 11 kts | 203° |
| 2026-04-23 14:11 | 25.93468 | 119.66768 | 30 ft | 13 kts | 207° |
| 2026-04-23 14:11 | 25.93414 | 119.66779 | 27 ft | 9 kts | 126° |
| 2026-04-23 14:12 | 25.93387 | 119.66828 | 27 ft | 0 kts | 118° |